createdAt,value
2023-07-10T00:01:49.343Z,4.97
2023-07-10T00:04:20.805Z,5.47
2023-07-10T00:06:53.286Z,6.00
2023-07-10T00:09:23.201Z,4.57
2023-07-10T00:11:54.321Z,4.40
2023-07-10T00:14:26.730Z,5.18
2023-07-10T00:16:56.796Z,5.07
2023-07-10T00:19:27.041Z,4.95
2023-07-10T00:21:59.540Z,4.60
2023-07-10T00:24:29.438Z,4.80
2023-07-10T00:27:00.325Z,4.40
2023-07-10T00:29:35.729Z,4.93
2023-07-10T00:32:09.627Z,4.60
2023-07-10T00:34:39.689Z,4.60
2023-07-10T00:37:13.022Z,4.88
2023-07-10T00:39:44.575Z,5.68
2023-07-10T00:42:19.356Z,6.28
2023-07-10T00:44:53.328Z,6.93
2023-07-10T00:47:27.813Z,6.95
2023-07-10T00:50:05.722Z,8.27
2023-07-10T00:52:54.859Z,7.75
2023-07-10T00:55:29.948Z,8.70
2023-07-10T00:58:20.115Z,8.63
2023-07-10T01:01:06.186Z,8.13
2023-07-10T01:03:36.805Z,8.70
2023-07-10T01:06:11.609Z,11.55
2023-07-10T01:08:46.633Z,11.15
2023-07-10T01:11:16.701Z,11.85
2023-07-10T01:13:48.494Z,12.27
2023-07-10T01:16:18.826Z,11.60
2023-07-10T01:18:53.371Z,10.50
2023-07-10T01:21:31.643Z,11.68
2023-07-10T01:24:07.109Z,13.15
2023-07-10T01:26:40.148Z,14.48
2023-07-10T01:29:21.611Z,16.35
2023-07-10T01:31:53.392Z,13.70
2023-07-10T01:34:25.215Z,18.20
2023-07-10T01:36:59.056Z,17.50
2023-07-10T01:39:42.839Z,17.95
2023-07-10T01:42:13.247Z,19.63
2023-07-10T01:44:45.455Z,19.20
2023-07-10T01:47:17.757Z,19.35
2023-07-10T01:49:50.463Z,20.90
2023-07-10T01:52:25.681Z,21.45
2023-07-10T01:54:57.440Z,20.45
2023-07-10T01:57:29.269Z,19.63
2023-07-10T01:59:59.126Z,19.95
2023-07-10T02:02:29.069Z,19.75
2023-07-10T02:04:59.001Z,18.08
2023-07-10T02:07:31.507Z,14.88
2023-07-10T02:10:01.409Z,13.90
2023-07-10T02:12:31.319Z,13.32
2023-07-10T02:15:01.188Z,12.50
2023-07-10T02:17:31.271Z,11.80
2023-07-10T02:20:01.375Z,12.30
2023-07-10T02:22:34.806Z,14.65
2023-07-10T02:25:04.705Z,14.30
2023-07-10T02:27:34.596Z,16.52
2023-07-10T02:30:04.551Z,16.60
2023-07-10T02:32:36.187Z,17.70
2023-07-10T02:35:07.211Z,17.25
2023-07-10T02:37:39.740Z,16.08
2023-07-10T02:40:11.159Z,17.92
2023-07-10T02:42:41.126Z,18.73
2023-07-10T02:45:20.438Z,18.63
2023-07-10T02:47:50.368Z,17.48
2023-07-10T02:50:20.451Z,16.42
2023-07-10T02:52:52.941Z,15.85
2023-07-10T02:55:23.072Z,14.80
2023-07-10T02:57:53.158Z,15.18
2023-07-10T03:00:23.281Z,12.88
2023-07-10T03:02:57.124Z,11.90
2023-07-10T03:05:28.613Z,12.38
2023-07-10T03:08:01.130Z,11.07
2023-07-10T03:10:31.093Z,11.90
2023-07-10T03:13:00.991Z,10.98
2023-07-10T03:15:30.857Z,10.15
2023-07-10T03:18:00.912Z,9.95
2023-07-10T03:20:30.993Z,10.13
2023-07-10T03:23:05.545Z,10.35
2023-07-10T03:25:37.405Z,10.75
2023-07-10T03:28:07.581Z,10.23
2023-07-10T03:30:39.084Z,10.32
2023-07-10T03:33:09.185Z,9.82
2023-07-10T03:35:39.089Z,10.07
2023-07-10T03:38:12.303Z,10.20
2023-07-10T03:40:42.241Z,9.98
2023-07-10T03:43:12.165Z,9.90
2023-07-10T03:45:42.038Z,8.48
2023-07-10T03:48:11.957Z,9.02
2023-07-10T03:50:42.083Z,10.40
2023-07-10T03:53:14.652Z,8.45
2023-07-10T03:55:52.058Z,9.20
2023-07-10T03:58:25.088Z,10.30
2023-07-10T04:00:59.336Z,9.43
2023-07-10T04:03:32.809Z,9.95
2023-07-10T04:06:04.000Z,9.93
2023-07-10T04:08:45.369Z,11.75
2023-07-10T04:11:18.118Z,12.02
2023-07-10T04:13:48.176Z,11.20
2023-07-10T04:16:20.766Z,11.38
2023-07-10T04:18:52.258Z,13.07
2023-07-10T04:21:25.918Z,11.38
2023-07-10T04:23:58.872Z,12.38
2023-07-10T04:26:36.884Z,11.98
2023-07-10T04:29:09.865Z,12.48
2023-07-10T04:31:39.775Z,11.48
2023-07-10T04:34:09.573Z,12.32
2023-07-10T04:36:39.453Z,13.57
2023-07-10T04:39:12.178Z,15.15
2023-07-10T04:41:44.606Z,14.02
2023-07-10T04:44:16.333Z,14.20
2023-07-10T04:46:46.254Z,15.90
2023-07-10T04:49:16.517Z,15.80
2023-07-10T04:51:46.530Z,16.70
2023-07-10T04:54:19.079Z,16.75
2023-07-10T04:56:48.896Z,16.85
2023-07-10T04:59:18.819Z,14.73
2023-07-10T05:01:50.272Z,15.57
2023-07-10T05:04:20.229Z,13.88
2023-07-10T05:06:53.241Z,12.23
2023-07-10T05:09:27.087Z,12.35
2023-07-10T05:11:57.979Z,11.48
2023-07-10T05:14:28.455Z,11.85
2023-07-10T05:16:58.539Z,11.57
2023-07-10T05:19:34.203Z,11.23
2023-07-10T05:22:04.261Z,10.10
2023-07-10T05:24:36.911Z,8.93
2023-07-10T05:27:07.958Z,10.32
2023-07-10T05:29:37.888Z,10.52
2023-07-10T05:32:08.717Z,12.25
2023-07-10T05:34:38.797Z,23.67
2023-07-10T05:37:09.516Z,15.27
2023-07-10T05:39:42.115Z,13.90
2023-07-10T05:42:12.686Z,13.80
2023-07-10T05:44:42.817Z,15.25
2023-07-10T05:47:12.693Z,15.27
2023-07-10T05:49:42.715Z,14.27
2023-07-10T05:52:12.873Z,14.95
2023-07-10T05:54:45.503Z,14.32
2023-07-10T05:57:15.383Z,15.02
2023-07-10T05:59:45.305Z,15.13
2023-07-10T06:02:15.420Z,15.13
2023-07-10T06:04:45.374Z,12.43
2023-07-10T06:07:15.300Z,11.73
2023-07-10T06:09:50.868Z,12.48
2023-07-10T06:12:20.890Z,9.45
2023-07-10T06:14:50.958Z,6.97
2023-07-10T06:17:20.895Z,6.22
2023-07-10T06:19:50.815Z,5.70
2023-07-10T06:22:20.775Z,5.63
2023-07-10T06:24:53.524Z,7.43
2023-07-10T06:27:26.909Z,7.15
2023-07-10T06:30:00.253Z,7.47
2023-07-10T06:32:32.361Z,7.80
2023-07-10T06:35:02.373Z,8.07
2023-07-10T06:37:32.422Z,6.72
2023-07-10T06:40:14.706Z,6.22
2023-07-10T06:42:45.250Z,4.97
2023-07-10T06:45:16.121Z,5.50
2023-07-10T06:47:49.153Z,6.60
2023-07-10T06:50:19.241Z,6.00
2023-07-10T06:52:54.034Z,6.43
2023-07-10T06:55:26.881Z,5.85
2023-07-10T06:57:56.965Z,5.45
2023-07-10T07:00:27.383Z,4.70
2023-07-10T07:02:59.525Z,4.90
2023-07-10T07:05:29.949Z,4.63
2023-07-10T07:07:59.829Z,4.60
2023-07-10T07:10:36.177Z,4.75
2023-07-10T07:13:06.095Z,4.07
2023-07-10T07:15:35.968Z,4.50
2023-07-10T07:18:07.545Z,4.25
2023-07-10T07:20:37.903Z,4.38
2023-07-10T07:23:07.910Z,3.63
2023-07-10T07:25:40.478Z,3.70
2023-07-10T07:28:10.517Z,3.42
2023-07-10T07:30:49.564Z,3.50
2023-07-10T07:33:21.339Z,3.33
2023-07-10T07:35:51.959Z,3.30
2023-07-10T07:38:21.848Z,3.15
2023-07-10T07:40:54.560Z,3.47
2023-07-10T07:43:24.375Z,3.17
2023-07-10T07:45:55.481Z,2.92
2023-07-10T07:48:26.773Z,2.90
2023-07-10T07:51:00.857Z,2.55
2023-07-10T07:53:31.015Z,2.10
2023-07-10T07:56:04.083Z,2.10
2023-07-10T07:58:34.276Z,2.28
2023-07-10T08:01:04.298Z,2.40
2023-07-10T08:03:35.009Z,2.17
2023-07-10T08:06:13.588Z,2.10
2023-07-10T08:08:46.124Z,2.33
2023-07-10T08:11:20.165Z,1.95
2023-07-10T08:13:50.158Z,2.30
2023-07-10T08:16:21.009Z,2.35
2023-07-10T08:18:50.958Z,2.20
2023-07-10T08:21:22.696Z,2.83
2023-07-10T08:23:52.712Z,2.30
2023-07-10T08:26:26.118Z,2.03
2023-07-10T08:28:56.102Z,2.30
2023-07-10T08:31:26.086Z,1.98
2023-07-10T08:33:56.028Z,1.85
2023-07-10T08:36:26.030Z,2.60
2023-07-10T08:38:55.918Z,1.98
2023-07-10T08:45:05.304Z,1.95
2023-07-10T08:47:41.218Z,1.88
2023-07-10T08:50:16.868Z,1.98
2023-07-10T08:52:54.891Z,1.80
2023-07-10T08:55:31.670Z,2.20
2023-07-10T08:58:05.804Z,2.03
2023-07-10T09:00:46.640Z,2.17
2023-07-10T09:03:31.706Z,1.85
2023-07-10T09:06:02.191Z,1.80
2023-07-10T09:08:33.938Z,2.17
2023-07-10T09:11:06.524Z,2.00
2023-07-10T09:17:23.989Z,1.98
2023-07-10T09:19:58.539Z,1.70
2023-07-10T09:22:28.485Z,2.03
2023-07-10T09:24:58.681Z,1.77
2023-07-10T09:27:40.944Z,1.92
2023-07-10T09:30:23.646Z,1.80
2023-07-10T09:33:24.491Z,2.10
2023-07-10T09:35:58.378Z,2.03
2023-07-10T09:38:30.301Z,2.60
2023-07-10T09:41:03.560Z,2.15
2023-07-10T09:43:45.732Z,1.92
2023-07-10T09:46:16.853Z,1.90
2023-07-10T09:48:49.574Z,1.90
2023-07-10T09:51:21.565Z,1.80
2023-07-10T09:54:05.036Z,1.95
2023-07-10T09:56:39.811Z,1.70
2023-07-10T09:59:24.116Z,1.73
2023-07-10T10:01:56.552Z,1.58
2023-07-10T10:04:33.284Z,1.65
2023-07-10T10:07:21.017Z,2.50
2023-07-10T10:09:51.407Z,1.83
2023-07-10T10:12:27.477Z,1.98
2023-07-10T10:15:02.130Z,2.28
2023-07-10T10:17:38.056Z,1.88
2023-07-10T10:20:19.351Z,1.42
2023-07-10T10:22:53.164Z,1.60
2023-07-10T10:25:29.458Z,1.45
2023-07-10T10:28:10.352Z,1.70
2023-07-10T10:30:44.250Z,1.70
2023-07-10T10:33:22.887Z,1.67
2023-07-10T10:36:05.772Z,1.45
2023-07-10T10:38:57.852Z,2.35
2023-07-10T10:41:49.572Z,2.00
2023-07-10T10:44:31.727Z,3.03
2023-07-10T10:47:18.384Z,1.88
2023-07-10T10:50:07.376Z,2.30
2023-07-10T10:52:49.004Z,2.67
2023-07-10T10:55:47.888Z,1.90
2023-07-10T10:58:30.425Z,1.63
2023-07-10T11:01:11.687Z,1.80
2023-07-10T11:03:53.364Z,3.80
2023-07-10T11:06:48.296Z,2.10
2023-07-10T11:09:26.880Z,3.95
2023-07-10T11:11:58.501Z,4.28
2023-07-10T11:14:28.932Z,1.98
2023-07-10T11:17:00.564Z,2.63
2023-07-10T11:19:32.652Z,2.03
2023-07-10T11:22:14.859Z,1.75
2023-07-10T11:24:58.023Z,1.73
2023-07-10T11:27:36.522Z,2.00
2023-07-10T11:30:11.937Z,1.60
2023-07-10T11:33:00.650Z,1.80
2023-07-10T11:35:31.649Z,1.90
2023-07-10T11:38:20.996Z,1.60
2023-07-10T11:41:13.142Z,1.83
2023-07-10T11:43:53.314Z,1.77
2023-07-10T11:46:32.050Z,1.80
2023-07-10T11:49:19.228Z,1.70
2023-07-10T11:52:29.244Z,1.90
2023-07-10T11:55:16.194Z,1.58
2023-07-10T11:57:48.764Z,1.67
2023-07-10T12:00:29.619Z,1.80
2023-07-10T12:03:12.584Z,1.77
2023-07-10T12:05:42.862Z,1.73
2023-07-10T12:08:18.333Z,1.38
2023-07-10T12:10:50.256Z,1.95
2023-07-10T12:13:28.670Z,1.80
2023-07-10T12:16:01.170Z,1.70
2023-07-10T12:18:40.778Z,1.60
2023-07-10T12:21:27.454Z,1.65
2023-07-10T12:24:01.175Z,1.70
2023-07-10T12:29:07.258Z,1.48
2023-07-10T12:31:37.578Z,1.52
2023-07-10T12:34:07.722Z,1.40
2023-07-10T12:36:41.490Z,1.58
2023-07-10T12:39:13.697Z,1.73
2023-07-10T12:41:46.410Z,1.83
2023-07-10T12:44:22.885Z,1.40
2023-07-10T12:46:58.851Z,1.58
2023-07-10T12:49:34.076Z,1.40
2023-07-10T12:52:08.208Z,1.75
2023-07-10T12:54:48.002Z,1.85
2023-07-10T12:57:20.798Z,1.70
2023-07-10T13:00:00.058Z,1.45
2023-07-10T13:02:41.363Z,1.25
2023-07-10T13:05:36.399Z,1.52
2023-07-10T13:08:19.073Z,1.50
2023-07-10T13:10:52.450Z,1.60
2023-07-10T13:13:23.926Z,1.50
2023-07-10T13:15:56.546Z,1.60
2023-07-10T13:18:28.602Z,1.80
2023-07-10T13:24:19.341Z,2.13
2023-07-10T13:26:52.974Z,1.73
2023-07-10T13:29:23.110Z,1.70
2023-07-10T13:31:55.693Z,2.03
2023-07-10T13:34:25.631Z,1.90
2023-07-10T13:36:55.779Z,1.70
2023-07-10T13:39:25.760Z,2.53
2023-07-10T13:41:55.632Z,1.73
2023-07-10T13:44:25.851Z,1.95
2023-07-10T13:46:58.440Z,2.05
2023-07-10T13:49:28.568Z,1.70
2023-07-10T13:51:58.550Z,1.90
2023-07-10T13:54:28.625Z,1.80
2023-07-10T13:57:00.277Z,1.90
2023-07-10T13:59:31.505Z,2.15
2023-07-10T14:02:05.013Z,1.90
2023-07-10T14:04:35.020Z,1.70
2023-07-10T14:07:05.092Z,1.98
2023-07-10T14:09:34.961Z,1.65
2023-07-10T14:12:04.916Z,1.80
2023-07-10T14:14:36.048Z,1.67
2023-07-10T14:17:09.577Z,1.70
2023-07-10T14:19:39.664Z,1.92
2023-07-10T14:22:13.814Z,1.58
2023-07-10T14:24:43.697Z,2.00
2023-07-10T14:27:25.073Z,1.60
2023-07-10T14:29:57.550Z,1.65
2023-07-10T14:32:31.153Z,1.63
2023-07-10T14:35:01.089Z,1.90
2023-07-10T14:37:31.565Z,1.50
2023-07-10T14:40:01.485Z,1.83
2023-07-10T14:42:31.432Z,1.90
2023-07-10T14:45:01.311Z,1.70
2023-07-10T14:47:36.399Z,1.88
2023-07-10T14:50:12.713Z,2.25
2023-07-10T14:52:44.689Z,2.05
2023-07-10T14:55:18.958Z,1.75
2023-07-10T14:57:48.877Z,3.67
2023-07-10T15:00:25.279Z,2.00
2023-07-10T15:03:00.861Z,1.70
2023-07-10T15:05:30.812Z,2.28
2023-07-10T15:08:01.737Z,2.08
2023-07-10T15:10:32.562Z,2.00
2023-07-10T15:13:04.698Z,1.75
2023-07-10T15:15:37.712Z,1.80
2023-07-10T15:18:12.485Z,1.70
2023-07-10T15:20:47.670Z,1.70
2023-07-10T15:23:23.885Z,1.75
2023-07-10T15:25:56.035Z,1.65
2023-07-10T15:28:25.906Z,1.70
2023-07-10T15:30:58.426Z,2.00
2023-07-10T15:33:34.923Z,1.70
2023-07-10T15:36:05.616Z,1.95
2023-07-10T15:38:37.901Z,2.22
2023-07-10T15:41:23.172Z,1.90
2023-07-10T15:43:53.684Z,1.90
2023-07-10T15:46:23.879Z,1.75
2023-07-10T15:48:56.513Z,1.42
2023-07-10T15:51:29.901Z,2.05
2023-07-10T15:54:00.152Z,2.05
2023-07-10T15:56:30.169Z,1.70
2023-07-10T15:59:00.104Z,2.05
2023-07-10T16:01:29.968Z,2.00
2023-07-10T16:04:02.542Z,2.00
2023-07-10T16:06:33.627Z,1.80
2023-07-10T16:09:05.566Z,1.63
2023-07-10T16:11:35.474Z,1.70
2023-07-10T16:14:05.733Z,1.80
2023-07-10T16:16:35.718Z,1.90
2023-07-10T16:19:11.093Z,1.90
2023-07-10T16:21:43.179Z,1.95
2023-07-10T16:24:17.730Z,2.35
2023-07-10T16:26:49.079Z,2.25
2023-07-10T16:29:19.072Z,2.08
2023-07-10T16:31:49.322Z,2.25
2023-07-10T16:34:25.350Z,2.30
2023-07-10T16:36:56.240Z,2.10
2023-07-10T16:39:26.424Z,2.15
2023-07-10T16:41:57.570Z,2.03
2023-07-10T16:44:27.688Z,1.80
2023-07-10T16:46:57.590Z,1.90
2023-07-10T16:49:30.110Z,1.73
2023-07-10T16:51:59.956Z,1.80
2023-07-10T16:54:32.161Z,1.80
2023-07-10T16:57:02.118Z,1.83
2023-07-10T16:59:32.181Z,1.80
2023-07-10T17:02:02.681Z,1.40
2023-07-10T17:04:38.042Z,1.60
2023-07-10T17:07:08.149Z,2.00
2023-07-10T17:09:38.071Z,1.90
2023-07-10T17:12:09.109Z,1.70
2023-07-10T17:14:39.004Z,1.80
2023-07-10T17:17:21.432Z,1.55
2023-07-10T17:19:56.597Z,2.00
2023-07-10T17:22:30.264Z,2.00
2023-07-10T17:25:00.773Z,1.80
2023-07-10T17:27:32.880Z,1.73
2023-07-10T17:30:05.286Z,1.90
2023-07-10T17:32:35.490Z,1.92
2023-07-10T17:35:14.595Z,2.03
2023-07-10T17:37:44.675Z,1.90
2023-07-10T17:40:17.473Z,3.58
2023-07-10T17:42:50.535Z,2.08
2023-07-10T17:45:23.599Z,2.22
2023-07-10T17:47:53.575Z,2.00
2023-07-10T17:50:26.452Z,2.00
2023-07-10T17:52:56.482Z,1.70
2023-07-10T17:55:28.337Z,1.67
2023-07-10T17:58:02.224Z,1.60
2023-07-10T18:00:32.190Z,1.60
2023-07-10T18:03:02.222Z,1.60
2023-07-10T18:05:34.870Z,1.80
2023-07-10T18:08:04.772Z,1.67
2023-07-10T18:10:35.269Z,1.70
2023-07-10T18:13:05.203Z,1.67
2023-07-10T18:15:35.709Z,1.55
2023-07-10T18:18:12.550Z,2.15
2023-07-10T18:20:45.252Z,3.08
2023-07-10T18:23:23.787Z,1.60
2023-07-10T18:25:55.622Z,1.80
2023-07-10T18:28:28.086Z,1.73
2023-07-10T18:31:00.276Z,1.77
2023-07-10T18:33:32.114Z,1.88
2023-07-10T18:36:06.071Z,1.80
2023-07-10T18:38:35.964Z,1.90
2023-07-10T18:41:06.093Z,1.80
2023-07-10T18:43:36.756Z,1.80
2023-07-10T18:46:06.704Z,1.90
2023-07-10T18:48:36.960Z,1.83
2023-07-10T18:51:16.575Z,1.90
2023-07-10T18:53:46.497Z,2.10
2023-07-10T18:56:17.515Z,2.15
2023-07-10T18:58:48.839Z,1.60
2023-07-10T19:01:19.800Z,1.70
2023-07-10T19:03:50.295Z,2.25
2023-07-10T19:06:26.906Z,1.98
2023-07-10T19:08:57.650Z,2.10
2023-07-10T19:11:27.538Z,1.80
2023-07-10T19:13:57.490Z,2.17
2023-07-10T19:16:30.739Z,2.38
2023-07-10T19:19:03.503Z,1.95
2023-07-10T19:21:36.037Z,2.38
2023-07-10T19:24:13.064Z,1.80
2023-07-10T19:26:42.964Z,2.05
2023-07-10T19:29:13.084Z,1.92
2023-07-10T19:31:45.133Z,1.73
2023-07-10T19:34:19.096Z,1.90
2023-07-10T19:36:52.897Z,1.60
2023-07-10T19:39:25.060Z,1.80
2023-07-10T19:41:55.006Z,2.08
2023-07-10T19:44:28.379Z,2.00
2023-07-10T19:46:58.498Z,1.90
2023-07-10T19:49:30.214Z,2.05
2023-07-10T19:52:02.848Z,1.70
2023-07-10T19:54:32.802Z,2.00
2023-07-10T19:57:02.829Z,2.20
2023-07-10T19:59:32.792Z,2.00
2023-07-10T20:02:02.702Z,2.00
2023-07-10T20:04:32.672Z,1.75
2023-07-10T20:07:05.231Z,2.35
2023-07-10T20:09:35.189Z,2.00
2023-07-10T20:12:05.300Z,2.17
2023-07-10T20:14:35.249Z,1.90
2023-07-10T20:17:06.252Z,1.98
2023-07-10T20:19:36.351Z,1.98
2023-07-10T20:22:12.681Z,1.70
2023-07-10T20:24:42.725Z,1.80
2023-07-10T20:27:13.330Z,2.20
2023-07-10T20:29:43.255Z,1.90
2023-07-10T20:32:15.705Z,1.90
2023-07-10T20:34:50.834Z,1.67
2023-07-10T20:37:27.682Z,1.70
2023-07-10T20:39:57.705Z,2.00
2023-07-10T20:42:27.691Z,1.73
2023-07-10T20:44:57.629Z,1.85
2023-07-10T20:47:27.614Z,1.80
2023-07-10T20:49:57.514Z,1.92
2023-07-10T20:52:30.025Z,2.10
2023-07-10T20:54:59.998Z,2.17
2023-07-10T20:57:29.879Z,2.13
2023-07-10T20:59:59.762Z,2.58
2023-07-10T21:02:30.553Z,2.40
2023-07-10T21:05:00.500Z,2.28
2023-07-10T21:07:33.030Z,2.10
2023-07-10T21:10:03.160Z,2.30
2023-07-10T21:12:33.764Z,2.35
2023-07-10T21:15:03.813Z,2.55
2023-07-10T21:17:35.711Z,2.60
2023-07-10T21:20:05.761Z,2.40
2023-07-10T21:22:38.315Z,2.40
2023-07-10T21:25:08.771Z,2.58
2023-07-10T21:27:39.635Z,2.70
2023-07-10T21:30:18.905Z,2.72
2023-07-10T21:32:49.386Z,2.40
2023-07-10T21:35:29.189Z,2.60
2023-07-10T21:38:01.611Z,2.75
2023-07-10T21:40:31.766Z,2.75
2023-07-10T21:43:01.715Z,2.70
2023-07-10T21:45:32.376Z,2.65
2023-07-10T21:48:03.183Z,2.50
2023-07-10T21:50:33.093Z,2.88
2023-07-10T21:53:05.532Z,2.65
2023-07-10T21:55:35.495Z,3.05
2023-07-10T21:58:05.692Z,2.80
2023-07-10T22:00:35.521Z,3.33
2023-07-10T22:03:05.472Z,3.00
2023-07-10T22:05:38.350Z,2.72
2023-07-10T22:08:11.013Z,2.72
2023-07-10T22:10:40.859Z,2.70
2023-07-10T22:13:18.161Z,2.85
2023-07-10T22:15:52.397Z,2.63
2023-07-10T22:18:25.525Z,2.78
2023-07-10T22:20:57.531Z,2.80
2023-07-10T22:23:32.162Z,2.28
2023-07-10T22:26:05.417Z,2.50
2023-07-10T22:28:36.952Z,2.85
2023-07-10T22:31:09.397Z,2.72
2023-07-10T22:33:41.288Z,2.55
2023-07-10T22:36:11.682Z,2.38
2023-07-10T22:38:44.527Z,2.47
2023-07-10T22:41:17.277Z,2.60
2023-07-10T22:43:50.887Z,2.70
2023-07-10T22:46:26.499Z,2.45
2023-07-10T22:48:56.662Z,2.30
2023-07-10T22:51:29.280Z,2.60
2023-07-10T22:54:02.261Z,2.60
2023-07-10T22:56:34.027Z,2.60
2023-07-10T22:59:04.497Z,2.60
2023-07-10T23:01:34.931Z,2.58
2023-07-10T23:04:04.954Z,2.58
2023-07-10T23:06:35.587Z,2.42
2023-07-10T23:09:08.146Z,2.38
2023-07-10T23:11:38.045Z,2.35
2023-07-10T23:14:08.180Z,2.40
2023-07-10T23:16:41.041Z,2.35
2023-07-10T23:19:12.324Z,2.53
2023-07-10T23:21:42.326Z,2.63
2023-07-10T23:24:14.920Z,2.33
2023-07-10T23:26:45.802Z,2.50
2023-07-10T23:29:16.256Z,3.28
2023-07-10T23:31:46.201Z,2.60
2023-07-10T23:34:17.583Z,2.70
2023-07-10T23:36:47.608Z,2.33
2023-07-10T23:39:20.137Z,2.63
2023-07-10T23:41:49.984Z,3.00
2023-07-10T23:44:19.890Z,2.67
2023-07-10T23:46:49.816Z,2.55
2023-07-10T23:49:19.727Z,2.60
2023-07-10T23:51:49.651Z,2.75
2023-07-10T23:54:22.151Z,2.83
2023-07-10T23:56:59.790Z,2.28
2023-07-10T23:59:40.548Z,2.67
